sensor_id;sensor_type;location;lat;lon;timestamp;temperature;humidity
81383;DHT22;70834;37.534;-122.308;2024-02-14T00:02:02;18.40;56.90
81383;DHT22;70834;37.534;-122.308;2024-02-14T00:04:26;18.40;56.70
81383;DHT22;70834;37.534;-122.308;2024-02-14T00:06:48;18.40;56.40
81383;DHT22;70834;37.534;-122.308;2024-02-14T00:09:09;18.40;56.70
81383;DHT22;70834;37.534;-122.308;2024-02-14T00:11:32;18.40;56.10
81383;DHT22;70834;37.534;-122.308;2024-02-14T00:13:54;18.40;56.60
81383;DHT22;70834;37.534;-122.308;2024-02-14T00:16:17;18.40;56.30
81383;DHT22;70834;37.534;-122.308;2024-02-14T00:18:39;18.30;56.20
81383;DHT22;70834;37.534;-122.308;2024-02-14T00:21:01;18.30;56.00
81383;DHT22;70834;37.534;-122.308;2024-02-14T00:23:23;18.30;56.00
81383;DHT22;70834;37.534;-122.308;2024-02-14T00:25:45;18.30;56.40
81383;DHT22;70834;37.534;-122.308;2024-02-14T00:28:07;18.20;55.90
81383;DHT22;70834;37.534;-122.308;2024-02-14T00:30:29;18.20;55.00
81383;DHT22;70834;37.534;-122.308;2024-02-14T00:32:51;18.20;54.90
81383;DHT22;70834;37.534;-122.308;2024-02-14T00:35:15;18.20;55.40
81383;DHT22;70834;37.534;-122.308;2024-02-14T00:37:39;18.10;54.40
81383;DHT22;70834;37.534;-122.308;2024-02-14T00:40:00;18.10;55.00
81383;DHT22;70834;37.534;-122.308;2024-02-14T00:42:25;18.00;55.10
81383;DHT22;70834;37.534;-122.308;2024-02-14T00:44:48;18.00;55.40
81383;DHT22;70834;37.534;-122.308;2024-02-14T00:47:10;17.90;55.60
81383;DHT22;70834;37.534;-122.308;2024-02-14T00:49:34;17.90;56.40
81383;DHT22;70834;37.534;-122.308;2024-02-14T00:51:57;17.80;57.00
81383;DHT22;70834;37.534;-122.308;2024-02-14T00:54:20;17.70;56.40
81383;DHT22;70834;37.534;-122.308;2024-02-14T00:56:42;17.70;56.00
81383;DHT22;70834;37.534;-122.308;2024-02-14T00:59:06;17.60;56.80
81383;DHT22;70834;37.534;-122.308;2024-02-14T01:01:29;17.60;57.00
81383;DHT22;70834;37.534;-122.308;2024-02-14T01:03:51;17.50;57.70
81383;DHT22;70834;37.534;-122.308;2024-02-14T01:06:15;17.50;57.20
81383;DHT22;70834;37.534;-122.308;2024-02-14T01:08:40;17.40;58.00
81383;DHT22;70834;37.534;-122.308;2024-02-14T01:11:04;17.40;57.80
81383;DHT22;70834;37.534;-122.308;2024-02-14T01:13:26;17.30;57.60
81383;DHT22;70834;37.534;-122.308;2024-02-14T01:15:48;17.20;58.40
81383;DHT22;70834;37.534;-122.308;2024-02-14T01:18:11;17.20;58.20
81383;DHT22;70834;37.534;-122.308;2024-02-14T01:20:40;17.10;58.20
81383;DHT22;70834;37.534;-122.308;2024-02-14T01:23:08;17.00;58.50
81383;DHT22;70834;37.534;-122.308;2024-02-14T01:25:31;16.90;59.30
81383;DHT22;70834;37.534;-122.308;2024-02-14T01:27:59;16.90;59.10
81383;DHT22;70834;37.534;-122.308;2024-02-14T01:30:22;16.80;59.20
81383;DHT22;70834;37.534;-122.308;2024-02-14T01:32:47;16.70;59.70
81383;DHT22;70834;37.534;-122.308;2024-02-14T01:35:09;16.70;59.90
81383;DHT22;70834;37.534;-122.308;2024-02-14T01:37:35;16.60;60.00
81383;DHT22;70834;37.534;-122.308;2024-02-14T01:39:58;16.50;60.30
81383;DHT22;70834;37.534;-122.308;2024-02-14T01:42:23;16.40;60.50
81383;DHT22;70834;37.534;-122.308;2024-02-14T01:44:45;16.40;61.20
81383;DHT22;70834;37.534;-122.308;2024-02-14T01:47:10;16.30;61.40
81383;DHT22;70834;37.534;-122.308;2024-02-14T01:49:34;16.20;61.60
81383;DHT22;70834;37.534;-122.308;2024-02-14T01:52:12;16.20;62.10
81383;DHT22;70834;37.534;-122.308;2024-02-14T01:54:35;16.10;62.40
81383;DHT22;70834;37.534;-122.308;2024-02-14T01:56:58;16.00;62.60
81383;DHT22;70834;37.534;-122.308;2024-02-14T01:59:21;16.00;63.00
81383;DHT22;70834;37.534;-122.308;2024-02-14T02:01:51;15.90;63.80
81383;DHT22;70834;37.534;-122.308;2024-02-14T02:04:15;15.80;63.60
81383;DHT22;70834;37.534;-122.308;2024-02-14T02:06:38;15.70;63.70
81383;DHT22;70834;37.534;-122.308;2024-02-14T02:09:07;15.60;63.90
81383;DHT22;70834;37.534;-122.308;2024-02-14T02:11:31;15.60;64.20
81383;DHT22;70834;37.534;-122.308;2024-02-14T02:14:03;15.50;64.20
81383;DHT22;70834;37.534;-122.308;2024-02-14T02:16:25;15.40;64.40
81383;DHT22;70834;37.534;-122.308;2024-02-14T02:18:48;15.30;64.50
81383;DHT22;70834;37.534;-122.308;2024-02-14T02:21:11;15.20;64.80
81383;DHT22;70834;37.534;-122.308;2024-02-14T02:23:39;15.20;65.10
81383;DHT22;70834;37.534;-122.308;2024-02-14T02:26:07;15.10;65.40
81383;DHT22;70834;37.534;-122.308;2024-02-14T02:28:29;15.00;65.60
81383;DHT22;70834;37.534;-122.308;2024-02-14T02:30:52;14.90;66.00
81383;DHT22;70834;37.534;-122.308;2024-02-14T02:33:17;14.90;66.30
81383;DHT22;70834;37.534;-122.308;2024-02-14T02:35:42;14.80;66.40
81383;DHT22;70834;37.534;-122.308;2024-02-14T02:38:06;14.70;66.70
81383;DHT22;70834;37.534;-122.308;2024-02-14T02:40:28;14.60;66.70
81383;DHT22;70834;37.534;-122.308;2024-02-14T02:42:50;14.60;66.90
81383;DHT22;70834;37.534;-122.308;2024-02-14T02:45:14;14.50;67.20
81383;DHT22;70834;37.534;-122.308;2024-02-14T02:47:36;14.40;67.50
81383;DHT22;70834;37.534;-122.308;2024-02-14T02:50:01;14.40;67.50
81383;DHT22;70834;37.534;-122.308;2024-02-14T02:52:24;14.30;67.80
81383;DHT22;70834;37.534;-122.308;2024-02-14T02:54:46;14.30;68.10
81383;DHT22;70834;37.534;-122.308;2024-02-14T02:57:13;14.20;68.10
81383;DHT22;70834;37.534;-122.308;2024-02-14T02:59:36;14.20;68.30
81383;DHT22;70834;37.534;-122.308;2024-02-14T03:01:59;14.10;68.30
81383;DHT22;70834;37.534;-122.308;2024-02-14T03:04:21;14.10;68.60
81383;DHT22;70834;37.534;-122.308;2024-02-14T03:06:45;14.00;68.60
81383;DHT22;70834;37.534;-122.308;2024-02-14T03:09:09;14.00;69.00
81383;DHT22;70834;37.534;-122.308;2024-02-14T03:11:31;13.90;69.00
81383;DHT22;70834;37.534;-122.308;2024-02-14T03:13:55;13.90;69.30
81383;DHT22;70834;37.534;-122.308;2024-02-14T03:16:24;13.80;69.20
81383;DHT22;70834;37.534;-122.308;2024-02-14T03:18:48;13.80;69.60
81383;DHT22;70834;37.534;-122.308;2024-02-14T03:21:10;13.70;69.70
81383;DHT22;70834;37.534;-122.308;2024-02-14T03:23:33;13.60;70.00
81383;DHT22;70834;37.534;-122.308;2024-02-14T03:25:55;13.50;70.60
81383;DHT22;70834;37.534;-122.308;2024-02-14T03:28:19;13.50;70.70
81383;DHT22;70834;37.534;-122.308;2024-02-14T03:30:41;13.40;70.50
81383;DHT22;70834;37.534;-122.308;2024-02-14T03:33:05;13.30;70.50
81383;DHT22;70834;37.534;-122.308;2024-02-14T03:35:31;13.30;70.70
81383;DHT22;70834;37.534;-122.308;2024-02-14T03:37:54;13.20;70.90
81383;DHT22;70834;37.534;-122.308;2024-02-14T03:40:17;13.10;72.00
81383;DHT22;70834;37.534;-122.308;2024-02-14T03:42:41;13.10;71.80
81383;DHT22;70834;37.534;-122.308;2024-02-14T03:45:05;13.10;72.30
81383;DHT22;70834;37.534;-122.308;2024-02-14T03:47:32;13.00;72.60
81383;DHT22;70834;37.534;-122.308;2024-02-14T03:49:54;12.90;72.70
81383;DHT22;70834;37.534;-122.308;2024-02-14T03:52:16;12.90;72.70
81383;DHT22;70834;37.534;-122.308;2024-02-14T03:54:38;12.90;73.20
81383;DHT22;70834;37.534;-122.308;2024-02-14T03:57:01;12.80;73.60
81383;DHT22;70834;37.534;-122.308;2024-02-14T03:59:22;12.70;73.40
81383;DHT22;70834;37.534;-122.308;2024-02-14T04:01:45;12.70;73.60
81383;DHT22;70834;37.534;-122.308;2024-02-14T04:04:07;12.60;73.40
81383;DHT22;70834;37.534;-122.308;2024-02-14T04:06:29;12.60;73.50
81383;DHT22;70834;37.534;-122.308;2024-02-14T04:08:53;12.50;73.80
81383;DHT22;70834;37.534;-122.308;2024-02-14T04:11:14;12.50;74.00
81383;DHT22;70834;37.534;-122.308;2024-02-14T04:13:36;12.40;74.10
81383;DHT22;70834;37.534;-122.308;2024-02-14T04:15:58;12.30;74.10
81383;DHT22;70834;37.534;-122.308;2024-02-14T04:18:19;12.30;74.20
81383;DHT22;70834;37.534;-122.308;2024-02-14T04:20:41;12.20;74.50
81383;DHT22;70834;37.534;-122.308;2024-02-14T04:23:05;12.20;74.60
81383;DHT22;70834;37.534;-122.308;2024-02-14T04:25:28;12.10;74.90
81383;DHT22;70834;37.534;-122.308;2024-02-14T04:27:49;12.10;75.00
81383;DHT22;70834;37.534;-122.308;2024-02-14T04:30:11;12.10;75.30
81383;DHT22;70834;37.534;-122.308;2024-02-14T04:32:33;12.00;75.80
81383;DHT22;70834;37.534;-122.308;2024-02-14T04:34:54;11.90;75.80
81383;DHT22;70834;37.534;-122.308;2024-02-14T04:37:16;11.90;75.80
81383;DHT22;70834;37.534;-122.308;2024-02-14T04:39:40;11.90;75.90
81383;DHT22;70834;37.534;-122.308;2024-02-14T04:42:01;11.80;76.00
81383;DHT22;70834;37.534;-122.308;2024-02-14T04:44:23;11.80;75.80
81383;DHT22;70834;37.534;-122.308;2024-02-14T04:46:45;11.70;75.80
81383;DHT22;70834;37.534;-122.308;2024-02-14T04:49:07;11.70;75.80
81383;DHT22;70834;37.534;-122.308;2024-02-14T04:51:31;11.70;75.80
81383;DHT22;70834;37.534;-122.308;2024-02-14T04:53:52;11.60;76.10
81383;DHT22;70834;37.534;-122.308;2024-02-14T04:56:14;11.50;76.40
81383;DHT22;70834;37.534;-122.308;2024-02-14T04:58:36;11.50;76.20
81383;DHT22;70834;37.534;-122.308;2024-02-14T05:00:57;11.50;76.20
81383;DHT22;70834;37.534;-122.308;2024-02-14T05:03:19;11.50;76.40
81383;DHT22;70834;37.534;-122.308;2024-02-14T05:05:40;11.40;76.40
81383;DHT22;70834;37.534;-122.308;2024-02-14T05:08:02;11.30;76.70
81383;DHT22;70834;37.534;-122.308;2024-02-14T05:10:23;11.30;77.20
81383;DHT22;70834;37.534;-122.308;2024-02-14T05:12:45;11.20;77.50
81383;DHT22;70834;37.534;-122.308;2024-02-14T05:15:06;11.20;77.30
81383;DHT22;70834;37.534;-122.308;2024-02-14T05:17:28;11.20;77.40
81383;DHT22;70834;37.534;-122.308;2024-02-14T05:19:49;11.10;77.80
81383;DHT22;70834;37.534;-122.308;2024-02-14T05:22:11;11.10;77.80
81383;DHT22;70834;37.534;-122.308;2024-02-14T05:24:32;11.10;78.30
81383;DHT22;70834;37.534;-122.308;2024-02-14T05:26:54;11.00;78.60
81383;DHT22;70834;37.534;-122.308;2024-02-14T05:29:15;11.00;78.40
81383;DHT22;70834;37.534;-122.308;2024-02-14T05:31:46;10.90;78.10
81383;DHT22;70834;37.534;-122.308;2024-02-14T05:34:09;10.90;78.10
81383;DHT22;70834;37.534;-122.308;2024-02-14T05:36:31;10.90;78.00
81383;DHT22;70834;37.534;-122.308;2024-02-14T05:38:52;10.80;78.60
81383;DHT22;70834;37.534;-122.308;2024-02-14T05:41:14;10.80;78.90
81383;DHT22;70834;37.534;-122.308;2024-02-14T05:43:38;10.80;78.80
81383;DHT22;70834;37.534;-122.308;2024-02-14T05:46:00;10.80;78.80
81383;DHT22;70834;37.534;-122.308;2024-02-14T05:48:21;10.70;78.90
81383;DHT22;70834;37.534;-122.308;2024-02-14T05:50:43;10.70;78.80
81383;DHT22;70834;37.534;-122.308;2024-02-14T05:53:04;10.70;79.00
81383;DHT22;70834;37.534;-122.308;2024-02-14T05:55:26;10.60;80.50
81383;DHT22;70834;37.534;-122.308;2024-02-14T05:57:48;10.60;81.10
81383;DHT22;70834;37.534;-122.308;2024-02-14T06:00:10;10.50;80.80
81383;DHT22;70834;37.534;-122.308;2024-02-14T06:02:33;10.50;80.40
81383;DHT22;70834;37.534;-122.308;2024-02-14T06:04:54;10.50;80.20
81383;DHT22;70834;37.534;-122.308;2024-02-14T06:07:16;10.50;80.40
81383;DHT22;70834;37.534;-122.308;2024-02-14T06:09:38;10.50;80.20
81383;DHT22;70834;37.534;-122.308;2024-02-14T06:11:59;10.40;80.20
81383;DHT22;70834;37.534;-122.308;2024-02-14T06:14:21;10.40;80.30
81383;DHT22;70834;37.534;-122.308;2024-02-14T06:16:42;10.40;80.40
81383;DHT22;70834;37.534;-122.308;2024-02-14T06:19:05;10.40;80.40
81383;DHT22;70834;37.534;-122.308;2024-02-14T06:21:27;10.40;80.80
81383;DHT22;70834;37.534;-122.308;2024-02-14T06:23:48;10.40;80.80
81383;DHT22;70834;37.534;-122.308;2024-02-14T06:26:10;10.30;80.50
81383;DHT22;70834;37.534;-122.308;2024-02-14T06:28:31;10.30;80.60
81383;DHT22;70834;37.534;-122.308;2024-02-14T06:30:53;10.30;80.50
81383;DHT22;70834;37.534;-122.308;2024-02-14T06:33:15;10.20;80.40
81383;DHT22;70834;37.534;-122.308;2024-02-14T06:35:37;10.20;80.30
81383;DHT22;70834;37.534;-122.308;2024-02-14T06:37:58;10.20;80.20
81383;DHT22;70834;37.534;-122.308;2024-02-14T06:40:20;10.20;80.20
81383;DHT22;70834;37.534;-122.308;2024-02-14T06:42:41;10.20;80.20
81383;DHT22;70834;37.534;-122.308;2024-02-14T06:45:03;10.10;80.40
81383;DHT22;70834;37.534;-122.308;2024-02-14T06:47:24;10.10;80.60
81383;DHT22;70834;37.534;-122.308;2024-02-14T06:49:50;10.10;80.60
81383;DHT22;70834;37.534;-122.308;2024-02-14T06:52:12;10.10;80.80
81383;DHT22;70834;37.534;-122.308;2024-02-14T06:54:33;10.10;81.20
81383;DHT22;70834;37.534;-122.308;2024-02-14T06:56:54;10.10;81.30
81383;DHT22;70834;37.534;-122.308;2024-02-14T06:59:16;10.00;81.10
81383;DHT22;70834;37.534;-122.308;2024-02-14T07:01:37;10.00;81.20
81383;DHT22;70834;37.534;-122.308;2024-02-14T07:03:59;10.00;81.10
81383;DHT22;70834;37.534;-122.308;2024-02-14T07:06:22;10.00;81.30
81383;DHT22;70834;37.534;-122.308;2024-02-14T07:08:43;10.00;81.50
81383;DHT22;70834;37.534;-122.308;2024-02-14T07:11:05;10.00;81.70
81383;DHT22;70834;37.534;-122.308;2024-02-14T07:13:26;9.90;81.70
81383;DHT22;70834;37.534;-122.308;2024-02-14T07:15:48;9.90;81.80
81383;DHT22;70834;37.534;-122.308;2024-02-14T07:18:09;9.90;81.80
81383;DHT22;70834;37.534;-122.308;2024-02-14T07:20:31;9.90;81.80
81383;DHT22;70834;37.534;-122.308;2024-02-14T07:22:52;9.90;81.60
81383;DHT22;70834;37.534;-122.308;2024-02-14T07:25:14;9.90;81.40
81383;DHT22;70834;37.534;-122.308;2024-02-14T07:27:35;9.80;81.60
81383;DHT22;70834;37.534;-122.308;2024-02-14T07:29:57;9.90;82.20
81383;DHT22;70834;37.534;-122.308;2024-02-14T07:32:19;9.80;82.80
81383;DHT22;70834;37.534;-122.308;2024-02-14T07:34:41;9.90;83.00
81383;DHT22;70834;37.534;-122.308;2024-02-14T07:37:02;9.90;83.60
81383;DHT22;70834;37.534;-122.308;2024-02-14T07:39:25;9.80;83.30
81383;DHT22;70834;37.534;-122.308;2024-02-14T07:41:46;9.80;83.10
81383;DHT22;70834;37.534;-122.308;2024-02-14T07:44:08;9.90;83.10
81383;DHT22;70834;37.534;-122.308;2024-02-14T07:46:29;9.90;82.90
81383;DHT22;70834;37.534;-122.308;2024-02-14T07:48:52;9.90;82.90
81383;DHT22;70834;37.534;-122.308;2024-02-14T07:51:14;9.90;83.20
81383;DHT22;70834;37.534;-122.308;2024-02-14T07:53:35;9.90;83.20
81383;DHT22;70834;37.534;-122.308;2024-02-14T07:55:56;9.90;83.10
81383;DHT22;70834;37.534;-122.308;2024-02-14T07:58:18;9.90;82.80
81383;DHT22;70834;37.534;-122.308;2024-02-14T08:00:39;10.00;82.90
81383;DHT22;70834;37.534;-122.308;2024-02-14T08:03:01;9.90;82.90
81383;DHT22;70834;37.534;-122.308;2024-02-14T08:05:24;10.00;83.30
81383;DHT22;70834;37.534;-122.308;2024-02-14T08:07:46;10.00;83.40
81383;DHT22;70834;37.534;-122.308;2024-02-14T08:10:08;10.10;83.60
81383;DHT22;70834;37.534;-122.308;2024-02-14T08:12:30;10.10;83.50
81383;DHT22;70834;37.534;-122.308;2024-02-14T08:14:52;10.10;83.50
81383;DHT22;70834;37.534;-122.308;2024-02-14T08:17:13;10.20;83.50
81383;DHT22;70834;37.534;-122.308;2024-02-14T08:19:35;10.20;83.50
81383;DHT22;70834;37.534;-122.308;2024-02-14T08:21:57;10.30;83.70
81383;DHT22;70834;37.534;-122.308;2024-02-14T08:24:20;10.30;83.70
81383;DHT22;70834;37.534;-122.308;2024-02-14T08:26:43;10.30;83.70
81383;DHT22;70834;37.534;-122.308;2024-02-14T08:29:05;10.30;83.50
81383;DHT22;70834;37.534;-122.308;2024-02-14T08:31:27;10.40;83.60
81383;DHT22;70834;37.534;-122.308;2024-02-14T08:33:48;10.40;84.20
81383;DHT22;70834;37.534;-122.308;2024-02-14T08:36:10;10.40;83.60
81383;DHT22;70834;37.534;-122.308;2024-02-14T08:38:31;10.40;83.60
81383;DHT22;70834;37.534;-122.308;2024-02-14T08:40:53;10.50;83.60
81383;DHT22;70834;37.534;-122.308;2024-02-14T08:43:15;10.50;83.50
81383;DHT22;70834;37.534;-122.308;2024-02-14T08:45:36;10.50;83.50
81383;DHT22;70834;37.534;-122.308;2024-02-14T08:47:58;10.60;83.70
81383;DHT22;70834;37.534;-122.308;2024-02-14T08:50:20;10.60;83.70
81383;DHT22;70834;37.534;-122.308;2024-02-14T08:52:41;10.60;83.70
81383;DHT22;70834;37.534;-122.308;2024-02-14T08:55:03;10.70;83.70
81383;DHT22;70834;37.534;-122.308;2024-02-14T08:57:25;10.70;84.00
81383;DHT22;70834;37.534;-122.308;2024-02-14T08:59:47;10.80;83.80
81383;DHT22;70834;37.534;-122.308;2024-02-14T09:02:09;10.80;83.80
81383;DHT22;70834;37.534;-122.308;2024-02-14T09:04:31;10.90;83.80
81383;DHT22;70834;37.534;-122.308;2024-02-14T09:06:52;10.90;83.90
81383;DHT22;70834;37.534;-122.308;2024-02-14T09:09:14;10.90;83.80
81383;DHT22;70834;37.534;-122.308;2024-02-14T09:11:37;11.00;84.00
81383;DHT22;70834;37.534;-122.308;2024-02-14T09:13:58;11.00;84.00
81383;DHT22;70834;37.534;-122.308;2024-02-14T09:16:25;11.10;83.90
81383;DHT22;70834;37.534;-122.308;2024-02-14T09:18:47;11.10;83.80
81383;DHT22;70834;37.534;-122.308;2024-02-14T09:21:08;11.10;83.80
81383;DHT22;70834;37.534;-122.308;2024-02-14T09:23:29;11.10;83.80
81383;DHT22;70834;37.534;-122.308;2024-02-14T09:25:52;11.10;83.70
81383;DHT22;70834;37.534;-122.308;2024-02-14T09:28:19;11.20;83.80
81383;DHT22;70834;37.534;-122.308;2024-02-14T09:30:40;11.20;83.60
81383;DHT22;70834;37.534;-122.308;2024-02-14T09:33:02;11.20;83.30
81383;DHT22;70834;37.534;-122.308;2024-02-14T09:35:25;11.20;83.10
81383;DHT22;70834;37.534;-122.308;2024-02-14T09:37:46;11.20;82.90
81383;DHT22;70834;37.534;-122.308;2024-02-14T09:40:08;11.20;82.70
81383;DHT22;70834;37.534;-122.308;2024-02-14T09:43:00;11.20;82.70
81383;DHT22;70834;37.534;-122.308;2024-02-14T09:45:25;11.20;82.70
81383;DHT22;70834;37.534;-122.308;2024-02-14T09:47:48;11.20;82.70
81383;DHT22;70834;37.534;-122.308;2024-02-14T09:50:09;11.20;82.80
81383;DHT22;70834;37.534;-122.308;2024-02-14T09:52:33;11.30;82.90
81383;DHT22;70834;37.534;-122.308;2024-02-14T09:54:56;11.30;83.00
81383;DHT22;70834;37.534;-122.308;2024-02-14T09:57:18;11.30;83.10
81383;DHT22;70834;37.534;-122.308;2024-02-14T09:59:40;11.30;83.00
81383;DHT22;70834;37.534;-122.308;2024-02-14T10:02:02;11.30;82.90
81383;DHT22;70834;37.534;-122.308;2024-02-14T10:04:24;11.30;83.20
81383;DHT22;70834;37.534;-122.308;2024-02-14T10:06:46;11.30;83.20
81383;DHT22;70834;37.534;-122.308;2024-02-14T10:09:09;11.40;83.20
81383;DHT22;70834;37.534;-122.308;2024-02-14T10:11:35;11.40;83.00
81383;DHT22;70834;37.534;-122.308;2024-02-14T10:13:58;11.40;82.80
81383;DHT22;70834;37.534;-122.308;2024-02-14T10:16:23;11.40;82.70
81383;DHT22;70834;37.534;-122.308;2024-02-14T10:18:46;11.40;82.60
81383;DHT22;70834;37.534;-122.308;2024-02-14T10:21:14;11.40;82.50
81383;DHT22;70834;37.534;-122.308;2024-02-14T10:23:35;11.40;82.40
81383;DHT22;70834;37.534;-122.308;2024-02-14T10:25:58;11.40;82.30
81383;DHT22;70834;37.534;-122.308;2024-02-14T10:28:21;11.40;82.10
81383;DHT22;70834;37.534;-122.308;2024-02-14T10:30:45;11.40;81.90
81383;DHT22;70834;37.534;-122.308;2024-02-14T10:33:07;11.40;81.80
81383;DHT22;70834;37.534;-122.308;2024-02-14T10:35:30;11.30;81.80
81383;DHT22;70834;37.534;-122.308;2024-02-14T10:37:54;11.30;81.90
81383;DHT22;70834;37.534;-122.308;2024-02-14T10:40:22;11.30;82.00
81383;DHT22;70834;37.534;-122.308;2024-02-14T10:42:45;11.30;82.10
81383;DHT22;70834;37.534;-122.308;2024-02-14T10:45:07;11.30;82.10
81383;DHT22;70834;37.534;-122.308;2024-02-14T10:47:36;11.40;82.20
81383;DHT22;70834;37.534;-122.308;2024-02-14T10:50:05;11.30;82.30
81383;DHT22;70834;37.534;-122.308;2024-02-14T10:52:35;11.40;82.50
81383;DHT22;70834;37.534;-122.308;2024-02-14T10:54:57;11.40;82.60
81383;DHT22;70834;37.534;-122.308;2024-02-14T10:57:20;11.40;82.50
81383;DHT22;70834;37.534;-122.308;2024-02-14T10:59:44;11.40;82.40
81383;DHT22;70834;37.534;-122.308;2024-02-14T11:02:07;11.40;82.40
81383;DHT22;70834;37.534;-122.308;2024-02-14T11:04:29;11.40;82.10
81383;DHT22;70834;37.534;-122.308;2024-02-14T11:06:54;11.40;82.10
81383;DHT22;70834;37.534;-122.308;2024-02-14T11:09:37;11.40;82.10
81383;DHT22;70834;37.534;-122.308;2024-02-14T11:12:00;11.40;82.00
81383;DHT22;70834;37.534;-122.308;2024-02-14T11:14:23;11.40;82.00
81383;DHT22;70834;37.534;-122.308;2024-02-14T11:16:47;11.40;82.10
81383;DHT22;70834;37.534;-122.308;2024-02-14T11:19:09;11.40;82.20
81383;DHT22;70834;37.534;-122.308;2024-02-14T11:21:31;11.40;82.20
81383;DHT22;70834;37.534;-122.308;2024-02-14T11:23:53;11.50;82.20
81383;DHT22;70834;37.534;-122.308;2024-02-14T11:26:19;11.50;82.40
81383;DHT22;70834;37.534;-122.308;2024-02-14T11:28:41;11.50;82.50
81383;DHT22;70834;37.534;-122.308;2024-02-14T11:31:03;11.50;82.40
81383;DHT22;70834;37.534;-122.308;2024-02-14T11:33:25;11.50;82.40
81383;DHT22;70834;37.534;-122.308;2024-02-14T11:35:49;11.50;82.30
81383;DHT22;70834;37.534;-122.308;2024-02-14T11:38:12;11.50;82.20
81383;DHT22;70834;37.534;-122.308;2024-02-14T11:40:33;11.50;82.10
81383;DHT22;70834;37.534;-122.308;2024-02-14T11:42:55;11.50;82.20
81383;DHT22;70834;37.534;-122.308;2024-02-14T11:45:16;11.50;82.10
81383;DHT22;70834;37.534;-122.308;2024-02-14T11:47:38;11.50;82.00
81383;DHT22;70834;37.534;-122.308;2024-02-14T11:50:00;11.50;81.90
81383;DHT22;70834;37.534;-122.308;2024-02-14T11:52:23;11.50;81.80
81383;DHT22;70834;37.534;-122.308;2024-02-14T11:54:48;11.50;81.70
81383;DHT22;70834;37.534;-122.308;2024-02-14T11:57:12;11.50;81.70
81383;DHT22;70834;37.534;-122.308;2024-02-14T11:59:34;11.50;81.70
81383;DHT22;70834;37.534;-122.308;2024-02-14T12:01:55;11.50;82.20
81383;DHT22;70834;37.534;-122.308;2024-02-14T12:04:19;11.50;81.60
81383;DHT22;70834;37.534;-122.308;2024-02-14T12:06:41;11.50;81.70
81383;DHT22;70834;37.534;-122.308;2024-02-14T12:09:03;11.50;81.60
81383;DHT22;70834;37.534;-122.308;2024-02-14T12:11:32;11.50;81.60
81383;DHT22;70834;37.534;-122.308;2024-02-14T12:13:57;11.50;82.20
81383;DHT22;70834;37.534;-122.308;2024-02-14T12:16:21;11.50;81.60
81383;DHT22;70834;37.534;-122.308;2024-02-14T12:18:43;11.50;81.60
81383;DHT22;70834;37.534;-122.308;2024-02-14T12:21:05;11.50;81.60
81383;DHT22;70834;37.534;-122.308;2024-02-14T12:23:29;11.50;81.70
81383;DHT22;70834;37.534;-122.308;2024-02-14T12:25:51;11.50;81.80
81383;DHT22;70834;37.534;-122.308;2024-02-14T12:28:19;11.50;82.00
81383;DHT22;70834;37.534;-122.308;2024-02-14T12:30:51;11.50;82.00
81383;DHT22;70834;37.534;-122.308;2024-02-14T12:33:17;11.50;82.00
81383;DHT22;70834;37.534;-122.308;2024-02-14T12:35:44;11.60;82.10
81383;DHT22;70834;37.534;-122.308;2024-02-14T12:38:05;11.60;82.20
81383;DHT22;70834;37.534;-122.308;2024-02-14T12:40:30;11.60;82.20
81383;DHT22;70834;37.534;-122.308;2024-02-14T12:42:53;11.60;82.30
81383;DHT22;70834;37.534;-122.308;2024-02-14T12:45:15;11.60;82.40
81383;DHT22;70834;37.534;-122.308;2024-02-14T12:47:37;11.70;82.70
81383;DHT22;70834;37.534;-122.308;2024-02-14T12:49:59;11.70;82.70
81383;DHT22;70834;37.534;-122.308;2024-02-14T12:52:20;11.70;82.70
81383;DHT22;70834;37.534;-122.308;2024-02-14T12:54:43;11.70;82.70
81383;DHT22;70834;37.534;-122.308;2024-02-14T12:57:04;11.80;82.90
81383;DHT22;70834;37.534;-122.308;2024-02-14T12:59:27;11.80;82.80
81383;DHT22;70834;37.534;-122.308;2024-02-14T13:01:48;11.80;82.80
81383;DHT22;70834;37.534;-122.308;2024-02-14T13:04:10;12.00;82.40
81383;DHT22;70834;37.534;-122.308;2024-02-14T13:06:31;12.10;82.00
81383;DHT22;70834;37.534;-122.308;2024-02-14T13:08:53;12.00;82.40
81383;DHT22;70834;37.534;-122.308;2024-02-14T13:11:14;12.00;82.60
81383;DHT22;70834;37.534;-122.308;2024-02-14T13:13:37;12.00;82.60
81383;DHT22;70834;37.534;-122.308;2024-02-14T13:15:58;11.90;82.60
81383;DHT22;70834;37.534;-122.308;2024-02-14T13:18:20;11.90;82.60
81383;DHT22;70834;37.534;-122.308;2024-02-14T13:20:42;12.00;82.50
81383;DHT22;70834;37.534;-122.308;2024-02-14T13:23:22;11.90;82.50
81383;DHT22;70834;37.534;-122.308;2024-02-14T13:25:44;11.90;82.40
81383;DHT22;70834;37.534;-122.308;2024-02-14T13:28:05;11.90;82.30
81383;DHT22;70834;37.534;-122.308;2024-02-14T13:30:27;11.90;82.30
81383;DHT22;70834;37.534;-122.308;2024-02-14T13:32:50;11.90;82.20
81383;DHT22;70834;37.534;-122.308;2024-02-14T13:35:12;11.90;82.20
81383;DHT22;70834;37.534;-122.308;2024-02-14T13:37:34;11.90;82.20
81383;DHT22;70834;37.534;-122.308;2024-02-14T13:39:56;11.80;82.00
81383;DHT22;70834;37.534;-122.308;2024-02-14T13:42:18;11.80;81.80
81383;DHT22;70834;37.534;-122.308;2024-02-14T13:44:39;11.80;81.80
81383;DHT22;70834;37.534;-122.308;2024-02-14T13:47:01;11.80;81.80
81383;DHT22;70834;37.534;-122.308;2024-02-14T13:49:23;11.80;81.70
81383;DHT22;70834;37.534;-122.308;2024-02-14T13:51:45;11.80;81.70
81383;DHT22;70834;37.534;-122.308;2024-02-14T13:54:07;11.80;81.70
81383;DHT22;70834;37.534;-122.308;2024-02-14T13:56:30;11.80;81.70
81383;DHT22;70834;37.534;-122.308;2024-02-14T13:58:52;11.80;82.20
81383;DHT22;70834;37.534;-122.308;2024-02-14T14:01:13;11.80;82.30
81383;DHT22;70834;37.534;-122.308;2024-02-14T14:03:35;11.80;82.40
81383;DHT22;70834;37.534;-122.308;2024-02-14T14:05:57;11.80;82.40
81383;DHT22;70834;37.534;-122.308;2024-02-14T14:08:19;11.90;82.40
81383;DHT22;70834;37.534;-122.308;2024-02-14T14:10:40;11.90;82.50
81383;DHT22;70834;37.534;-122.308;2024-02-14T14:13:04;12.00;82.60
81383;DHT22;70834;37.534;-122.308;2024-02-14T14:15:25;12.10;82.40
81383;DHT22;70834;37.534;-122.308;2024-02-14T14:17:47;12.20;81.90
81383;DHT22;70834;37.534;-122.308;2024-02-14T14:20:10;12.20;82.20
81383;DHT22;70834;37.534;-122.308;2024-02-14T14:22:32;12.20;82.30